createdAt,value
2023-05-09T00:00:11.098Z,101896.03
2023-05-09T00:02:45.909Z,101910.47
2023-05-09T00:05:32.374Z,101921.78
2023-05-09T00:08:04.902Z,101909.69
2023-05-09T00:10:50.807Z,101905.50
2023-05-09T00:13:23.672Z,101909.94
2023-05-09T00:16:00.252Z,101893.97
2023-05-09T00:18:31.247Z,101898.88
2023-05-09T00:21:03.285Z,101889.25
2023-05-09T00:23:31.605Z,101901.56
2023-05-09T00:26:08.020Z,101887.97
2023-05-09T00:28:36.969Z,101890.19
2023-05-09T00:31:10.456Z,101884.13
2023-05-09T00:33:43.036Z,101879.22
2023-05-09T00:36:16.759Z,101881.75
2023-05-09T00:38:50.207Z,101876.69
2023-05-09T00:41:27.268Z,101875.50
2023-05-09T00:43:55.818Z,101854.00
2023-05-09T00:46:26.912Z,101851.47
2023-05-09T00:48:57.183Z,101862.56
2023-05-09T00:51:32.657Z,101847.59
2023-05-09T00:54:03.337Z,101863.25
2023-05-09T00:56:49.650Z,101859.56
2023-05-09T00:59:23.266Z,101857.53
2023-05-09T01:01:59.734Z,101846.66
2023-05-09T01:04:32.480Z,101845.09
2023-05-09T01:07:10.100Z,101829.63
2023-05-09T01:09:57.035Z,101838.88
2023-05-09T01:12:38.616Z,101834.66
2023-05-09T01:15:24.634Z,101825.78
2023-05-09T01:18:03.181Z,101818.22
2023-05-09T01:20:42.989Z,101793.66
2023-05-09T01:23:52.281Z,101794.00
2023-05-09T01:26:47.030Z,101796.38
2023-05-09T01:29:39.841Z,101812.66
2023-05-09T01:32:15.705Z,101772.69
2023-05-09T01:34:46.517Z,101790.16
2023-05-09T01:37:18.044Z,101781.72
2023-05-09T01:39:55.559Z,101802.41
2023-05-09T01:42:28.805Z,101791.16
2023-05-09T01:45:00.765Z,101787.13
2023-05-09T01:47:42.470Z,101794.84
2023-05-09T01:50:18.371Z,101791.47
2023-05-09T01:52:52.909Z,101772.84
2023-05-09T01:55:32.905Z,101768.13
2023-05-09T01:58:04.634Z,101784.41
2023-05-09T02:00:37.680Z,101774.84
2023-05-09T02:03:11.684Z,101732.31
2023-05-09T02:05:41.060Z,101762.78
2023-05-09T02:08:15.169Z,101777.38
2023-05-09T02:10:45.587Z,101778.91
2023-05-09T02:13:18.400Z,101776.38
2023-05-09T02:15:54.431Z,101775.38
2023-05-09T02:18:22.855Z,101778.38
2023-05-09T02:20:55.962Z,101768.66
2023-05-09T02:23:29.071Z,101762.44
2023-05-09T02:26:02.412Z,101776.91
2023-05-09T02:28:40.162Z,101757.88
2023-05-09T02:31:15.040Z,101744.47
2023-05-09T02:33:50.895Z,101763.75
2023-05-09T02:36:27.990Z,101757.88
2023-05-09T02:38:56.281Z,101750.50
2023-05-09T02:41:24.418Z,101748.13
2023-05-09T02:43:55.528Z,101747.13
2023-05-09T02:46:25.364Z,101748.66
2023-05-09T02:48:54.869Z,101744.81
2023-05-09T02:51:23.000Z,101730.00
2023-05-09T02:54:08.941Z,101720.56
2023-05-09T02:56:37.050Z,101735.03
2023-05-09T02:59:07.040Z,101722.13
2023-05-09T03:01:39.435Z,101709.00
2023-05-09T03:04:13.634Z,101691.53
2023-05-09T03:06:42.011Z,101717.22
2023-05-09T03:09:10.319Z,101716.41
2023-05-09T03:11:38.855Z,101682.63
2023-05-09T03:14:10.790Z,101714.38
2023-05-09T03:16:40.766Z,101713.03
2023-05-09T03:19:17.651Z,101708.16
2023-05-09T03:21:45.868Z,101708.31
2023-05-09T03:24:14.493Z,101709.81
2023-05-09T03:26:42.905Z,101705.13
2023-05-09T03:29:11.092Z,101691.88
2023-05-09T03:31:44.343Z,101693.19
2023-05-09T03:34:15.327Z,101684.47
2023-05-09T03:36:45.392Z,101685.81
2023-05-09T03:39:20.524Z,101680.94
2023-05-09T03:41:51.738Z,101686.50
2023-05-09T03:44:30.982Z,101682.13
2023-05-09T03:47:01.337Z,101677.91
2023-05-09T03:49:36.278Z,101631.75
2023-05-09T03:52:04.953Z,101629.72
2023-05-09T03:54:34.463Z,101668.03
2023-05-09T03:57:03.557Z,101652.03
2023-05-09T03:59:31.864Z,101660.78
2023-05-09T04:02:06.213Z,101656.41
2023-05-09T04:04:37.071Z,101653.91
2023-05-09T04:07:08.169Z,101668.31
2023-05-09T04:09:41.232Z,101662.97
2023-05-09T04:12:16.975Z,101667.00
2023-05-09T04:14:50.205Z,101654.38
2023-05-09T04:17:21.199Z,101638.97
2023-05-09T04:19:49.389Z,101652.88
2023-05-09T04:22:17.587Z,101650.38
2023-05-09T04:24:45.914Z,101635.75
2023-05-09T04:27:26.293Z,101645.81
2023-05-09T04:29:57.416Z,101643.47
2023-05-09T04:32:33.583Z,101649.50
2023-05-09T04:35:04.934Z,101638.78
2023-05-09T04:37:38.709Z,101638.78
2023-05-09T04:40:09.098Z,101640.59
2023-05-09T04:42:46.812Z,101646.59
2023-05-09T04:45:16.565Z,101633.09
2023-05-09T04:47:46.492Z,101593.78
2023-05-09T04:50:14.898Z,101578.94
2023-05-09T04:52:43.083Z,101610.31
2023-05-09T04:55:11.769Z,101581.44
2023-05-09T04:57:44.639Z,101611.44
2023-05-09T05:00:18.257Z,101611.56
2023-05-09T05:02:49.524Z,101606.00
2023-05-09T05:05:25.006Z,101601.44
2023-05-09T05:07:54.164Z,101598.44
2023-05-09T05:10:25.923Z,101571.78
2023-05-09T05:13:02.212Z,101571.06
2023-05-09T05:15:30.767Z,101589.50
2023-05-09T05:18:03.438Z,101587.47
2023-05-09T05:20:35.863Z,101576.94
2023-05-09T05:23:04.398Z,101587.38
2023-05-09T05:25:32.896Z,101592.81
2023-05-09T05:28:02.479Z,101584.13
2023-05-09T05:30:34.225Z,101546.56
2023-05-09T05:33:05.111Z,101581.13
2023-05-09T05:35:35.726Z,101577.25
2023-05-09T05:38:04.824Z,101573.25
2023-05-09T05:40:33.136Z,101566.50
2023-05-09T05:43:04.721Z,101572.38
2023-05-09T05:45:36.390Z,101563.13
2023-05-09T05:48:08.859Z,101569.50
2023-05-09T05:50:39.810Z,101576.38
2023-05-09T05:53:08.026Z,101548.69
2023-05-09T05:55:40.088Z,101558.59
2023-05-09T05:58:08.267Z,101560.22
2023-05-09T06:00:37.297Z,101565.22
2023-05-09T06:03:14.215Z,101560.81
2023-05-09T06:05:49.022Z,101565.72
2023-05-09T06:08:17.825Z,101561.03
2023-05-09T06:10:46.097Z,101532.72
2023-05-09T06:13:14.689Z,101546.06
2023-05-09T06:15:49.298Z,101551.34
2023-05-09T06:18:22.072Z,101544.34
2023-05-09T06:20:52.987Z,101549.16
2023-05-09T06:23:22.362Z,101552.28
2023-05-09T06:25:50.682Z,101534.84
2023-05-09T06:28:19.138Z,101545.47
2023-05-09T06:30:47.569Z,101548.28
2023-05-09T06:33:15.913Z,101521.34
2023-05-09T06:35:45.470Z,101525.19
2023-05-09T06:38:13.719Z,101514.41
2023-05-09T06:40:46.631Z,101519.03
2023-05-09T06:43:14.811Z,101526.91
2023-05-09T06:45:48.063Z,101522.41
2023-05-09T06:48:32.897Z,101517.94
2023-05-09T06:51:02.638Z,101517.97
2023-05-09T06:53:49.993Z,101537.88
2023-05-09T06:56:33.724Z,101519.09
2023-05-09T06:59:02.078Z,101530.31
2023-05-09T07:01:31.981Z,101480.66
2023-05-09T07:04:02.069Z,101498.34
2023-05-09T07:06:31.645Z,101466.34
2023-05-09T07:09:03.197Z,101518.75
2023-05-09T07:11:40.463Z,101515.19
2023-05-09T07:14:08.754Z,101503.84
2023-05-09T07:16:39.370Z,101473.88
2023-05-09T07:19:10.236Z,101499.34
2023-05-09T07:21:41.495Z,101501.97
2023-05-09T07:24:12.834Z,101481.63
2023-05-09T07:26:43.685Z,101486.16
2023-05-09T07:29:14.738Z,101471.78
2023-05-09T07:31:43.331Z,101484.47
2023-05-09T07:34:23.048Z,101460.00
2023-05-09T07:37:11.720Z,101482.06
2023-05-09T07:39:46.725Z,101448.63
2023-05-09T07:42:17.095Z,101479.44
2023-05-09T07:44:49.873Z,101473.75
2023-05-09T07:47:18.228Z,101469.03
2023-05-09T07:50:13.344Z,101468.09
2023-05-09T07:52:46.923Z,101473.22
2023-05-09T07:55:16.673Z,101450.72
2023-05-09T07:57:46.507Z,101458.19
2023-05-09T08:00:23.797Z,101457.31
2023-05-09T08:02:53.949Z,101451.53
2023-05-09T08:05:24.260Z,101448.19
2023-05-09T08:07:56.901Z,101434.97
2023-05-09T08:10:30.605Z,101427.94
2023-05-09T08:13:02.957Z,101437.41
2023-05-09T08:15:31.321Z,101428.97
2023-05-09T08:18:00.898Z,101429.41
2023-05-09T08:20:31.264Z,101402.63
2023-05-09T08:23:03.988Z,101425.50
2023-05-09T08:25:32.814Z,101416.00
2023-05-09T08:28:01.115Z,101414.28
2023-05-09T08:30:32.232Z,101413.00
2023-05-09T08:33:02.984Z,101409.63
2023-05-09T08:35:36.410Z,101414.56
2023-05-09T08:38:08.124Z,101404.53
2023-05-09T08:40:43.502Z,101389.50
2023-05-09T08:43:16.440Z,101383.69
2023-05-09T08:45:52.759Z,101394.31
2023-05-09T08:48:24.356Z,101399.28
2023-05-09T08:51:02.854Z,101381.19
2023-05-09T08:53:35.959Z,101390.41
2023-05-09T08:56:08.104Z,101388.75
2023-05-09T08:58:36.788Z,101383.34
2023-05-09T09:01:07.838Z,101378.97
2023-05-09T09:03:38.463Z,101376.06
2023-05-09T09:06:12.383Z,101355.25
2023-05-09T09:08:45.158Z,101383.75
2023-05-09T09:11:22.442Z,101378.34
2023-05-09T09:13:58.280Z,101370.66
2023-05-09T09:16:31.859Z,101373.91
2023-05-09T09:19:09.884Z,101361.66
2023-05-09T09:21:42.600Z,101368.69
2023-05-09T09:24:15.187Z,101369.56
2023-05-09T09:26:52.831Z,101327.88
2023-05-09T09:29:24.854Z,101339.28
2023-05-09T09:31:55.665Z,101358.97
2023-05-09T09:34:27.871Z,101361.47
2023-05-09T09:37:01.528Z,101356.66
2023-05-09T09:39:43.056Z,101320.06
2023-05-09T09:42:14.573Z,101343.06
2023-05-09T09:44:46.258Z,101330.06
2023-05-09T09:47:16.165Z,101353.31
2023-05-09T09:49:53.122Z,101350.25
2023-05-09T09:52:30.923Z,101355.81
2023-05-09T09:55:12.989Z,101347.38
2023-05-09T09:57:45.618Z,101340.03
2023-05-09T10:00:26.131Z,101341.03
2023-05-09T10:02:56.194Z,101318.00
2023-05-09T10:05:26.925Z,101314.16
2023-05-09T10:08:02.182Z,101330.44
2023-05-09T10:10:41.140Z,101334.63
2023-05-09T10:13:22.920Z,101331.22
2023-05-09T10:15:54.092Z,101330.00
2023-05-09T10:18:28.155Z,101314.09
2023-05-09T10:21:01.036Z,101304.28
2023-05-09T10:23:36.642Z,101298.59
2023-05-09T10:26:18.039Z,101320.41
2023-05-09T10:28:49.307Z,101323.44
2023-05-09T10:31:27.140Z,101318.81
2023-05-09T10:33:58.033Z,101305.47
2023-05-09T10:36:26.648Z,101320.22
2023-05-09T10:39:04.615Z,101305.09
2023-05-09T10:41:40.627Z,101219.94
2023-05-09T10:44:17.760Z,101301.09
2023-05-09T10:46:51.222Z,101300.09
2023-05-09T10:49:25.279Z,101283.94
2023-05-09T10:51:55.752Z,101293.09
2023-05-09T10:54:38.657Z,101293.50
2023-05-09T10:57:11.075Z,101290.63
2023-05-09T10:59:46.138Z,101281.25
2023-05-09T11:02:18.454Z,101288.38
2023-05-09T11:04:50.878Z,101280.97
2023-05-09T11:07:30.080Z,101284.22
2023-05-09T11:10:18.424Z,101269.16
2023-05-09T11:13:03.755Z,101248.69
2023-05-09T11:15:36.616Z,101271.38
2023-05-09T11:18:15.035Z,101273.91
2023-05-09T11:20:52.766Z,101265.56
2023-05-09T11:23:38.012Z,101254.22
2023-05-09T11:26:09.115Z,101260.19
2023-05-09T11:28:39.965Z,101257.03
2023-05-09T11:31:15.899Z,101258.69
2023-05-09T11:33:47.159Z,101246.72
2023-05-09T11:36:25.681Z,101233.91
2023-05-09T11:39:09.398Z,101258.22
2023-05-09T11:41:43.991Z,101248.81
2023-05-09T11:44:30.883Z,101237.88
2023-05-09T11:46:59.047Z,101238.13
2023-05-09T11:49:32.799Z,101211.50
2023-05-09T11:52:02.389Z,101239.28
2023-05-09T11:54:30.566Z,101234.41
2023-05-09T11:57:02.197Z,101218.97
2023-05-09T11:59:35.478Z,101220.13
2023-05-09T12:02:06.008Z,101220.34
2023-05-09T12:04:39.188Z,101218.22
2023-05-09T12:07:19.700Z,101217.03
2023-05-09T12:09:56.566Z,101211.13
2023-05-09T12:12:24.814Z,101222.75
2023-05-09T12:14:54.770Z,101219.22
2023-05-09T12:17:30.582Z,101207.78
2023-05-09T12:20:01.251Z,101210.13
2023-05-09T12:22:30.350Z,101215.16
2023-05-09T12:25:01.577Z,101213.22
2023-05-09T12:27:32.048Z,101170.72
2023-05-09T12:30:05.062Z,101212.09
2023-05-09T12:32:33.390Z,101199.84
2023-05-09T12:35:04.027Z,101184.31
2023-05-09T12:37:33.871Z,101209.91
2023-05-09T12:40:07.245Z,101200.97
2023-05-09T12:42:44.549Z,101202.59
2023-05-09T12:45:18.786Z,101181.75
2023-05-09T12:47:53.644Z,101208.75
2023-05-09T12:50:34.911Z,101182.88
2023-05-09T12:53:05.752Z,101204.22
2023-05-09T12:55:42.134Z,101190.75
2023-05-09T12:58:22.171Z,101188.97
2023-05-09T13:01:00.056Z,101189.22
2023-05-09T13:03:31.315Z,101192.50
2023-05-09T13:06:03.740Z,101177.38
2023-05-09T13:08:37.637Z,101174.38
2023-05-09T13:11:15.497Z,101156.47
2023-05-09T13:13:51.721Z,101169.88
2023-05-09T13:16:22.154Z,101184.97
2023-05-09T13:18:52.402Z,101181.88
2023-05-09T13:21:23.655Z,101175.91
2023-05-09T13:23:56.122Z,101180.31
2023-05-09T13:26:24.782Z,101178.06
2023-05-09T13:28:52.981Z,101166.47
2023-05-09T13:31:25.903Z,101164.91
2023-05-09T13:33:58.043Z,101170.03
2023-05-09T13:36:34.020Z,101144.41
2023-05-09T13:39:02.464Z,101154.94
2023-05-09T13:41:38.104Z,101163.22
2023-05-09T13:44:10.589Z,101154.56
2023-05-09T13:46:42.451Z,101158.72
2023-05-09T13:49:13.420Z,101155.31
2023-05-09T13:51:45.174Z,101166.81
2023-05-09T13:54:14.767Z,101152.44
2023-05-09T13:56:45.615Z,101163.94
2023-05-09T13:59:15.809Z,101157.84
2023-05-09T14:01:55.684Z,101158.72
2023-05-09T14:04:24.089Z,101152.91
2023-05-09T14:06:56.423Z,101151.56
2023-05-09T14:09:26.972Z,101112.69
2023-05-09T14:11:57.541Z,101142.56
2023-05-09T14:14:31.625Z,101133.06
2023-05-09T14:17:04.908Z,101136.31
2023-05-09T14:19:41.408Z,101128.78
2023-05-09T14:22:09.928Z,101139.59
2023-05-09T14:24:41.232Z,101106.91
2023-05-09T14:27:19.842Z,101124.00
2023-05-09T14:29:49.341Z,101111.41
2023-05-09T14:32:23.447Z,101129.38
2023-05-09T14:35:02.891Z,101128.66
2023-05-09T14:37:33.779Z,101099.63
2023-05-09T14:40:15.781Z,101114.88
2023-05-09T14:42:59.215Z,101079.81
2023-05-09T14:45:30.688Z,101104.41
2023-05-09T14:48:08.748Z,101095.59
2023-05-09T14:50:42.870Z,101090.94
2023-05-09T14:53:16.702Z,101103.56
2023-05-09T14:55:48.056Z,101089.81
2023-05-09T14:58:18.075Z,101103.28
2023-05-09T15:00:52.824Z,101072.28
2023-05-09T15:03:32.696Z,101078.44
2023-05-09T15:06:04.866Z,101089.31
2023-05-09T15:08:37.656Z,101089.16
2023-05-09T15:11:07.918Z,101093.16
2023-05-09T15:13:39.243Z,101075.72
2023-05-09T15:16:12.142Z,101086.69
2023-05-09T15:18:46.056Z,101090.13
2023-05-09T15:21:15.718Z,101088.63
2023-05-09T15:23:44.314Z,101080.56
2023-05-09T15:26:13.192Z,101070.47
2023-05-09T15:28:41.624Z,101084.47
2023-05-09T15:31:13.056Z,101080.13
2023-05-09T15:33:43.152Z,101087.03
2023-05-09T15:36:14.090Z,101087.41
2023-05-09T15:38:42.350Z,101090.28
2023-05-09T15:41:10.732Z,101075.72
2023-05-09T15:43:40.571Z,101060.22
2023-05-09T15:46:08.896Z,101071.25
2023-05-09T15:48:37.159Z,101069.16
2023-05-09T15:51:10.124Z,101071.19
2023-05-09T15:53:41.067Z,101085.16
2023-05-09T15:56:09.770Z,101067.09
2023-05-09T15:58:39.008Z,101058.78
2023-05-09T16:01:08.313Z,101065.84
2023-05-09T16:03:37.858Z,101070.56
2023-05-09T16:06:08.081Z,101063.97
2023-05-09T16:08:40.798Z,101064.13
2023-05-09T16:11:11.977Z,101059.59
2023-05-09T16:13:40.205Z,101061.84
2023-05-09T16:16:18.983Z,101060.63
2023-05-09T16:18:47.325Z,101059.97
2023-05-09T16:21:19.454Z,101067.75
2023-05-09T16:23:47.849Z,101061.53
2023-05-09T16:26:22.027Z,101036.91
2023-05-09T16:28:50.263Z,101053.78
2023-05-09T16:31:18.559Z,101055.53
2023-05-09T16:33:47.087Z,101048.09
2023-05-09T16:36:16.928Z,101049.03
2023-05-09T16:38:45.226Z,101048.66
2023-05-09T16:41:13.797Z,101042.72
2023-05-09T16:43:43.129Z,101037.66
2023-05-09T16:46:11.433Z,101024.03
2023-05-09T16:48:39.676Z,101040.97
2023-05-09T16:51:10.927Z,101011.50
2023-05-09T16:53:40.440Z,101033.84
2023-05-09T16:56:11.616Z,101027.72
2023-05-09T16:58:40.185Z,100994.34
2023-05-09T17:01:08.376Z,101015.84
2023-05-09T17:03:36.640Z,100993.13
2023-05-09T17:06:05.122Z,101027.06
2023-05-09T17:08:33.403Z,101028.06
2023-05-09T17:11:02.997Z,101023.34
2023-05-09T17:13:33.137Z,101023.28
2023-05-09T17:16:01.534Z,101019.00
2023-05-09T17:18:37.787Z,101024.28
2023-05-09T17:21:08.281Z,101017.25
2023-05-09T17:23:39.226Z,101010.13
2023-05-09T17:26:09.355Z,101003.06
2023-05-09T17:28:39.189Z,100976.00
2023-05-09T17:31:08.952Z,101005.09
2023-05-09T17:33:37.463Z,100979.28
2023-05-09T17:36:08.933Z,101026.69
2023-05-09T17:38:37.342Z,100964.28
2023-05-09T17:41:05.837Z,101024.75
2023-05-09T17:43:35.510Z,101023.09
2023-05-09T17:46:03.958Z,101024.66
2023-05-09T17:48:32.382Z,101012.88
2023-05-09T17:51:04.878Z,101019.66
2023-05-09T17:53:33.126Z,101018.63
2023-05-09T17:56:01.945Z,101019.09
2023-05-09T17:58:30.329Z,101004.53
2023-05-09T18:00:59.922Z,101020.56
2023-05-09T18:03:34.173Z,101024.19
2023-05-09T18:06:02.795Z,101021.56
2023-05-09T18:08:31.907Z,101007.34
2023-05-09T18:11:00.223Z,101020.44
2023-05-09T18:13:35.553Z,100985.31
2023-05-09T18:16:07.424Z,101013.84
2023-05-09T18:18:36.556Z,100999.78
2023-05-09T18:21:09.611Z,101014.84
2023-05-09T18:23:38.098Z,101021.84
2023-05-09T18:26:11.148Z,101004.75
2023-05-09T18:28:40.251Z,101029.22
2023-05-09T18:31:11.764Z,101024.50
2023-05-09T18:33:43.386Z,101016.41
2023-05-09T18:36:12.128Z,101025.66
2023-05-09T18:38:41.095Z,101004.09
2023-05-09T18:41:13.987Z,101023.69
2023-05-09T18:43:46.769Z,101024.22
2023-05-09T18:46:25.647Z,101011.72
2023-05-09T18:48:54.286Z,100996.25
2023-05-09T18:51:22.571Z,101029.84
2023-05-09T18:53:50.751Z,101032.91
2023-05-09T18:56:25.555Z,101014.81
2023-05-09T18:58:53.733Z,101023.50
2023-05-09T19:01:24.573Z,101021.63
2023-05-09T19:03:55.256Z,101016.44
2023-05-09T19:06:24.053Z,101015.06
2023-05-09T19:08:57.498Z,101029.84
2023-05-09T19:11:28.321Z,101015.72
2023-05-09T19:13:56.637Z,101032.53
2023-05-09T19:16:26.639Z,101034.19
2023-05-09T19:18:56.999Z,101029.41
2023-05-09T19:21:26.001Z,101022.47
2023-05-09T19:23:59.988Z,101042.44
2023-05-09T19:26:29.660Z,101037.47
2023-05-09T19:28:57.878Z,101046.88
2023-05-09T19:31:39.686Z,101027.84
2023-05-09T19:34:07.855Z,101046.19
2023-05-09T19:36:36.017Z,101041.25
2023-05-09T19:39:08.604Z,101054.44
2023-05-09T19:41:36.823Z,101045.97
2023-05-09T19:44:07.034Z,101039.63
2023-05-09T19:46:43.052Z,101002.94
2023-05-09T19:49:15.399Z,101055.38
2023-05-09T19:51:49.046Z,101047.50
2023-05-09T19:54:18.914Z,101029.72
2023-05-09T19:56:47.343Z,101058.69
2023-05-09T19:59:15.824Z,101064.44
2023-05-09T20:01:50.525Z,101043.72
2023-05-09T20:04:24.034Z,101062.91
2023-05-09T20:07:01.752Z,101056.63
2023-05-09T20:09:33.176Z,101065.50
2023-05-09T20:12:05.954Z,101065.28
2023-05-09T20:14:34.367Z,101064.56
2023-05-09T20:17:07.016Z,101069.72
2023-05-09T20:19:35.635Z,101061.75
2023-05-09T20:22:04.736Z,101058.97
2023-05-09T20:24:33.118Z,101035.22
2023-05-09T20:27:03.833Z,101064.56
2023-05-09T20:29:40.695Z,101062.72
2023-05-09T20:32:11.213Z,101046.31
2023-05-09T20:34:42.032Z,101066.53
2023-05-09T20:37:10.486Z,101061.53
2023-05-09T20:39:42.478Z,101060.28
2023-05-09T20:42:18.415Z,101016.47
2023-05-09T20:44:51.886Z,101056.09
2023-05-09T20:47:24.400Z,101061.09
2023-05-09T20:49:58.233Z,101055.50
2023-05-09T20:52:27.097Z,101007.75
2023-05-09T20:54:57.069Z,101044.81
2023-05-09T20:57:25.524Z,101043.16
2023-05-09T20:59:53.934Z,101062.78
2023-05-09T21:02:23.924Z,101069.63
2023-05-09T21:04:52.362Z,101061.22
2023-05-09T21:07:23.717Z,101056.59
2023-05-09T21:09:53.973Z,101054.59
2023-05-09T21:12:27.815Z,101049.94
2023-05-09T21:14:59.135Z,101023.19
2023-05-09T21:17:29.295Z,101020.09
2023-05-09T21:20:03.801Z,101057.13
2023-05-09T21:22:32.156Z,101049.84
2023-05-09T21:25:00.495Z,101048.53
2023-05-09T21:27:31.514Z,101047.09
2023-05-09T21:29:59.936Z,101045.91
2023-05-09T21:32:29.761Z,101047.25
2023-05-09T21:35:00.035Z,101041.28
2023-05-09T21:37:31.943Z,101041.09
2023-05-09T21:40:04.172Z,101028.00
2023-05-09T21:42:37.341Z,101030.53
2023-05-09T21:45:07.336Z,101029.63
2023-05-09T21:47:38.192Z,101035.06
2023-05-09T21:50:07.789Z,101027.56
2023-05-09T21:52:38.499Z,101021.75
2023-05-09T21:55:07.377Z,101041.41
2023-05-09T21:57:38.970Z,100997.97
2023-05-09T22:00:16.271Z,101024.75
2023-05-09T22:03:01.681Z,100967.97
2023-05-09T22:05:30.110Z,100997.88
2023-05-09T22:07:58.259Z,101028.53
2023-05-09T22:10:26.387Z,101029.59
2023-05-09T22:12:57.804Z,101025.56
2023-05-09T22:15:27.833Z,101025.91
2023-05-09T22:17:58.939Z,101030.16
2023-05-09T22:20:27.271Z,101032.53
2023-05-09T22:22:57.661Z,101019.09
2023-05-09T22:25:29.618Z,101022.34
2023-05-09T22:27:58.475Z,100994.41
2023-05-09T22:30:28.815Z,101023.66
2023-05-09T22:33:05.013Z,101028.19
2023-05-09T22:35:36.418Z,101022.16
2023-05-09T22:38:04.726Z,101034.19
2023-05-09T22:40:32.971Z,100990.63
2023-05-09T22:43:01.205Z,101026.34
2023-05-09T22:45:29.659Z,101039.38
2023-05-09T22:47:59.344Z,101038.69
2023-05-09T22:50:27.519Z,101005.00
2023-05-09T22:52:55.701Z,100995.53
2023-05-09T22:55:27.343Z,100999.28
2023-05-09T22:57:58.704Z,101018.00
2023-05-09T23:00:29.924Z,101041.84
2023-05-09T23:03:07.919Z,101031.50
2023-05-09T23:05:37.121Z,101033.03
2023-05-09T23:08:05.405Z,101007.44
2023-05-09T23:10:39.313Z,101030.34
2023-05-09T23:13:10.225Z,101034.13
2023-05-09T23:15:38.469Z,101003.88
2023-05-09T23:18:08.422Z,101027.78
2023-05-09T23:34:39.451Z,101014.22
2023-05-09T23:37:10.171Z,101004.03
2023-05-09T23:39:38.436Z,101026.09
2023-05-09T23:42:06.768Z,101027.25
2023-05-09T23:44:35.331Z,101031.13
2023-05-09T23:47:03.812Z,100988.00
2023-05-09T23:49:32.097Z,100975.94
2023-05-09T23:52:01.579Z,100991.97
2023-05-09T23:54:29.863Z,101025.91
2023-05-09T23:56:59.048Z,100985.47
2023-05-09T23:59:27.235Z,101022.06
